Time;durP1;ratioP1;P1;durP2;ratioP2;P2;SDS_P1;SDS_P2;PMS_P1;PMS_P2;Temp;Humidity;BMP_temperature;BMP_pressure;BME280_temperature;BME280_humidity;BME280_pressure;Samples;Min_cycle;Max_cycle;Signal;HPM_P1;HPM_P2
2023/05/12 00:00:56;;;;;;;3.10;2.90;;;20.20;69.00;21.00;100573.00;;;;5035525;28;20557;-63
2023/05/12 00:03:22;;;;;;;3.70;3.13;;;20.20;69.10;21.00;100573.00;;;;5033795;28;20175;-63
2023/05/12 00:05:48;;;;;;;3.10;2.90;;;20.20;69.10;21.00;100563.00;;;;5035288;28;20178;-65
2023/05/12 00:08:14;;;;;;;3.10;2.90;;;20.20;69.10;21.00;100563.00;;;;5016928;28;20252;-64
2023/05/12 00:10:40;;;;;;;3.07;2.73;;;20.20;69.10;21.00;100568.00;;;;5031838;28;20203;-64
2023/05/12 00:13:07;;;;;;;3.43;3.13;;;20.20;69.10;21.00;100562.00;;;;5021848;28;20258;-64
2023/05/12 00:15:33;;;;;;;3.50;3.20;;;20.20;69.20;21.00;100563.00;;;;5030369;28;20179;-64
2023/05/12 00:17:59;;;;;;;3.00;2.80;;;20.20;69.10;21.00;100555.00;;;;5031676;28;20701;-64
2023/05/12 00:20:24;;;;;;;3.33;3.10;;;20.20;69.10;21.00;100562.00;;;;5029880;28;20780;-64
2023/05/12 00:22:50;;;;;;;3.27;3.00;;;20.20;69.10;20.90;100553.00;;;;5032109;28;20178;-62
2023/05/12 00:25:16;;;;;;;3.30;3.00;;;20.20;69.10;20.90;100556.00;;;;5013733;28;20764;-63
2023/05/12 00:27:41;;;;;;;3.07;2.83;;;20.20;69.20;20.90;100555.00;;;;5043685;28;20214;-63
2023/05/12 00:30:08;;;;;;;3.23;2.93;;;20.20;69.20;20.70;100555.00;;;;5029421;28;20198;-64
2023/05/12 00:32:34;;;;;;;3.30;3.00;;;20.10;69.20;20.90;100559.00;;;;5028809;28;20264;-64
2023/05/12 00:35:00;;;;;;;3.60;3.30;;;20.10;69.10;20.90;100526.00;;;;5028768;28;20627;-63
2023/05/12 00:37:26;;;;;;;3.30;2.97;;;20.10;69.10;20.90;100558.00;;;;5011575;28;20660;-64
2023/05/12 00:39:51;;;;;;;3.20;3.00;;;20.10;69.10;20.90;100535.00;;;;5012284;28;20191;-64
2023/05/12 00:42:17;;;;;;;3.30;3.00;;;20.10;69.00;20.80;100554.00;;;;5028759;28;20529;-64
2023/05/12 00:44:43;;;;;;;3.10;2.90;;;20.10;69.00;20.80;100554.00;;;;5030068;28;20181;-63
2023/05/12 00:47:08;;;;;;;3.30;3.00;;;20.10;69.00;20.80;100557.00;;;;5028327;28;20188;-64
2023/05/12 00:49:34;;;;;;;3.30;3.10;;;20.10;69.10;20.80;100551.00;;;;5028287;28;20206;-63
2023/05/12 00:52:01;;;;;;;3.00;2.80;;;20.10;69.00;20.80;100550.00;;;;5028144;28;20191;-64
2023/05/12 00:54:27;;;;;;;3.13;2.87;;;20.10;69.00;20.80;100552.00;;;;5027965;28;20184;-63
2023/05/12 00:56:53;;;;;;;2.90;2.70;;;20.10;69.00;20.80;100528.00;;;;5027951;28;20175;-62
2023/05/12 00:59:19;;;;;;;2.93;2.73;;;20.10;69.00;20.80;100537.00;;;;5027761;28;20171;-62
2023/05/12 01:01:45;;;;;;;2.90;2.70;;;20.10;69.00;20.80;100536.00;;;;5029327;28;20171;-61
2023/05/12 01:04:11;;;;;;;2.90;2.70;;;20.10;69.00;20.80;100526.00;;;;5027906;28;20656;-62
2023/05/12 01:07:16;;;;;;;3.50;2.70;;;20.00;68.70;20.80;100518.00;;;;5027550;28;20180;-62
2023/05/12 01:09:42;;;;;;;3.03;2.80;;;20.10;68.90;20.80;100523.00;;;;5016975;28;20230;-63
2023/05/12 01:12:08;;;;;;;3.20;2.90;;;20.00;68.80;20.70;100527.00;;;;5029248;28;20172;-65
2023/05/12 01:14:34;;;;;;;2.77;2.57;;;20.00;68.80;20.70;100522.00;;;;5029386;28;20176;-64
2023/05/12 01:17:02;;;;;;;3.07;2.87;;;20.00;68.80;20.70;100527.00;;;;5027792;28;20242;-63
2023/05/12 01:19:50;;;;;;;2.77;2.57;;;20.00;68.80;20.70;100508.00;;;;5027677;28;20672;-66
2023/05/12 01:22:16;;;;;;;3.10;2.90;;;20.00;69.70;20.70;100530.00;;;;5028013;28;20207;-64
2023/05/12 01:24:52;;;;;;;2.80;2.60;;;20.00;68.90;20.70;100506.00;;;;5027726;28;20199;-64
2023/05/12 01:27:18;;;;;;;3.00;2.80;;;20.00;69.00;20.70;100539.00;;;;5027669;28;20211;-64
2023/05/12 01:29:45;;;;;;;2.90;2.70;;;20.00;69.00;20.70;100525.00;;;;5027773;28;20195;-66
2023/05/12 01:32:11;;;;;;;2.60;2.40;;;20.00;69.10;20.70;100535.00;;;;5010990;28;20270;-65
2023/05/12 01:34:37;;;;;;;2.60;2.40;;;20.00;69.20;20.70;100525.00;;;;5010958;28;20199;-65
2023/05/12 01:37:03;;;;;;;3.17;2.93;;;20.00;69.40;20.70;100515.00;;;;5007364;28;20568;-65
2023/05/12 01:39:29;;;;;;;2.70;2.50;;;20.00;69.40;20.80;100520.00;;;;5026803;28;20200;-66
2023/05/12 01:41:55;;;;;;;3.13;2.93;;;20.00;69.40;20.80;100525.00;;;;5027419;28;20171;-65
2023/05/12 01:44:20;;;;;;;2.90;2.60;;;19.90;69.20;20.80;100518.00;;;;5027459;28;20540;-66
2023/05/12 01:46:48;;;;;;;2.57;2.43;;;19.90;69.20;20.80;100508.00;;;;5027395;28;20264;-67
2023/05/12 01:49:14;;;;;;;2.90;2.70;;;19.90;69.20;20.70;100513.00;;;;5027277;28;20207;-65
2023/05/12 01:51:39;;;;;;;2.70;2.50;;;19.90;69.20;20.70;100514.00;;;;5027399;28;20201;-66
2023/05/12 01:54:05;;;;;;;2.70;2.50;;;19.90;69.20;20.80;100526.00;;;;5027157;28;20508;-66
2023/05/12 01:56:31;;;;;;;2.97;2.77;;;19.90;69.20;20.70;100523.00;;;;5028344;28;20225;-64
2023/05/12 01:58:56;;;;;;;2.77;2.57;;;19.90;69.20;20.70;100523.00;;;;5026599;28;20204;-64
2023/05/12 02:01:27;;;;;;;2.77;2.57;;;19.90;69.30;20.70;100524.00;;;;5027014;28;20203;-64
2023/05/12 02:03:55;;;;;;;2.80;2.60;;;19.90;69.30;20.70;100536.00;;;;5027173;28;20172;-64
2023/05/12 02:06:21;;;;;;;2.73;2.53;;;19.90;69.20;20.70;100496.00;;;;5026831;28;20184;-64
2023/05/12 02:08:47;;;;;;;2.80;2.60;;;19.90;69.20;20.70;100536.00;;;;5026765;28;20541;-67
2023/05/12 02:11:13;;;;;;;2.60;2.40;;;19.90;69.20;20.70;100534.00;;;;5011040;28;20205;-64
2023/05/12 02:13:39;;;;;;;2.90;2.70;;;19.90;69.30;20.70;100530.00;;;;5036302;28;20381;-66
2023/05/12 02:16:06;;;;;;;2.80;2.60;;;19.90;69.20;20.70;100531.00;;;;5028667;28;20180;-66
2023/05/12 02:18:32;;;;;;;2.60;2.40;;;19.90;69.20;20.70;100537.00;;;;5029429;28;20228;-65
2023/05/12 02:20:58;;;;;;;2.60;2.40;;;19.90;69.20;20.70;100538.00;;;;5034600;28;20263;-64
2023/05/12 02:23:23;;;;;;;2.40;2.30;;;19.80;69.20;20.70;100536.00;;;;5035288;28;20204;-65
2023/05/12 02:25:49;;;;;;;2.73;2.50;;;19.90;69.30;20.70;100518.00;;;;5037634;28;20257;-65
2023/05/12 02:28:15;;;;;;;2.70;2.50;;;19.90;69.20;20.70;100536.00;;;;5034117;28;20546;-65
2023/05/12 02:30:48;;;;;;;2.60;2.40;;;19.80;69.20;20.50;100506.00;;;;5036979;28;20198;-66
2023/05/12 02:33:15;;;;;;;2.50;2.40;;;19.80;69.20;20.60;100533.00;;;;5031772;28;20753;-66
2023/05/12 02:35:40;;;;;;;2.60;2.40;;;19.90;69.20;20.70;100534.00;;;;5014256;28;20258;-65
2023/05/12 02:38:06;;;;;;;2.60;2.40;;;19.80;69.20;20.70;100534.00;;;;5030692;28;20300;-65
2023/05/12 02:40:32;;;;;;;2.67;2.47;;;19.80;69.20;20.60;100528.00;;;;5030736;28;20272;-64
2023/05/12 02:42:58;;;;;;;2.80;2.60;;;19.80;69.20;20.70;100534.00;;;;5030957;28;20343;-65
2023/05/12 02:45:23;;;;;;;2.70;2.50;;;19.80;69.20;20.70;100527.00;;;;5030762;28;20661;-63
2023/05/12 02:47:49;;;;;;;2.40;2.30;;;19.80;69.20;20.70;100535.00;;;;5031983;28;20179;-63
2023/05/12 02:50:15;;;;;;;2.60;2.40;;;19.80;69.20;20.70;100538.00;;;;5030577;28;20191;-64
2023/05/12 02:52:41;;;;;;;2.77;2.30;;;19.80;69.20;20.70;100530.00;;;;5030514;28;20264;-65
2023/05/12 02:55:07;;;;;;;2.70;2.50;;;19.80;69.20;20.50;100520.00;;;;5030834;28;20753;-65
2023/05/12 02:57:33;;;;;;;2.40;2.30;;;19.80;69.20;20.60;100539.00;;;;5013370;28;20740;-65
2023/05/12 03:00:05;;;;;;;2.40;2.30;;;19.80;69.20;20.60;100537.00;;;;5030448;28;20197;-64
2023/05/12 03:02:33;;;;;;;2.43;2.23;;;19.80;69.20;20.60;100510.00;;;;5031534;28;20603;-65
2023/05/12 03:04:58;;;;;;;2.60;2.40;;;19.80;69.20;20.60;100521.00;;;;5030448;28;20272;-65
2023/05/12 03:07:24;;;;;;;2.53;2.33;;;19.80;69.20;20.60;100498.00;;;;5031355;28;20262;-64
2023/05/12 03:09:50;;;;;;;2.70;2.50;;;19.80;69.20;20.60;100529.00;;;;5030313;28;20281;-63
2023/05/12 03:12:16;;;;;;;2.47;2.37;;;19.70;69.00;20.60;100518.00;;;;5031526;28;20185;-64
2023/05/12 03:14:42;;;;;;;2.47;2.27;;;19.80;69.20;20.60;100510.00;;;;5030146;28;20176;-64
2023/05/12 03:17:07;;;;;;;2.30;2.20;;;19.80;69.20;20.60;100515.00;;;;5029878;28;20195;-64
2023/05/12 03:19:33;;;;;;;2.40;2.30;;;19.70;69.00;20.60;100515.00;;;;5031149;28;20547;-65
2023/05/12 03:22:00;;;;;;;2.37;2.20;;;19.70;69.00;20.60;100516.00;;;;5022219;28;20175;-63
2023/05/12 03:24:25;;;;;;;2.37;2.20;;;19.80;69.20;20.60;100512.00;;;;5030026;28;20215;-67
2023/05/12 03:26:51;;;;;;;2.23;2.13;;;19.70;69.00;20.60;100521.00;;;;5030298;28;20203;-65
2023/05/12 03:29:17;;;;;;;2.60;2.40;;;19.70;69.10;20.60;100502.00;;;;5029811;28;20179;-62
2023/05/12 03:31:42;;;;;;;2.53;2.30;;;19.70;69.70;20.60;100515.00;;;;5031124;28;20167;-61
2023/05/12 03:34:08;;;;;;;3.17;2.50;;;19.70;69.70;20.60;100515.00;;;;5031115;28;20175;-64
2023/05/12 03:36:34;;;;;;;2.70;2.50;;;19.70;69.40;20.60;100515.00;;;;5029602;28;20179;-63
2023/05/12 03:39:01;;;;;;;2.53;2.33;;;19.70;69.40;20.60;100521.00;;;;5029483;28;20257;-65
2023/05/12 03:41:27;;;;;;;2.63;2.43;;;19.80;69.50;20.60;100507.00;;;;5029514;28;20287;-63
2023/05/12 03:43:53;;;;;;;2.97;2.63;;;19.70;69.40;20.60;100518.00;;;;5029659;28;20246;-64
2023/05/12 03:46:19;;;;;;;3.37;2.50;;;19.70;69.40;20.60;100516.00;;;;5031382;28;20206;-64
2023/05/12 03:48:45;;;;;;;2.60;2.40;;;19.70;69.30;20.60;100528.00;;;;5031863;28;20182;-64
2023/05/12 03:51:11;;;;;;;2.70;2.40;;;19.70;69.20;20.60;100528.00;;;;5030817;28;20234;-64
2023/05/12 03:53:36;;;;;;;2.40;2.20;;;19.70;69.20;20.50;100520.00;;;;5030545;28;20179;-64
2023/05/12 03:56:05;;;;;;;2.50;2.30;;;19.60;69.00;20.50;100520.00;;;;5030681;28;20184;-64
2023/05/12 03:58:31;;;;;;;2.33;2.10;;;19.60;69.00;20.50;100517.00;;;;5012021;28;20212;-63
2023/05/12 04:00:57;;;;;;;2.50;2.30;;;19.60;69.00;20.50;100528.00;;;;5030511;28;20574;-64
2023/05/12 04:03:23;;;;;;;2.37;2.17;;;19.60;69.00;20.50;100529.00;;;;5030683;28;20171;-63
2023/05/12 04:05:49;;;;;;;2.20;2.10;;;19.60;68.90;20.50;100518.00;;;;5014405;28;20175;-65
2023/05/12 04:08:15;;;;;;;2.50;2.30;;;19.60;68.90;20.50;100535.00;;;;5036285;28;20210;-67
2023/05/12 04:10:41;;;;;;;4.13;2.40;;;19.60;68.90;20.50;100525.00;;;;5037717;28;20195;-67
2023/05/12 04:13:07;;;;;;;3.07;2.30;;;19.60;68.90;20.50;100545.00;;;;5020546;28;20190;-66
2023/05/12 04:15:34;;;;;;;5.20;2.50;;;19.60;68.90;20.40;100534.00;;;;5019368;28;20188;-66
2023/05/12 04:18:03;;;;;;;2.50;2.30;;;19.60;68.90;20.40;100543.00;;;;5021106;28;20191;-63
2023/05/12 04:20:29;;;;;;;2.40;2.20;;;19.60;68.90;20.50;100544.00;;;;5012499;28;20187;-64
2023/05/12 04:22:55;;;;;;;2.30;2.13;;;19.60;68.90;20.50;100536.00;;;;5031236;28;20625;-64
2023/05/12 04:25:21;;;;;;;2.40;2.10;;;19.60;68.90;20.40;100523.00;;;;5029998;28;20720;-64
2023/05/12 04:27:47;;;;;;;2.80;2.30;;;19.60;68.90;20.50;100554.00;;;;5029022;28;20187;-65
2023/05/12 04:30:12;;;;;;;2.27;2.17;;;19.60;68.90;20.40;100554.00;;;;5029384;28;20206;-65
2023/05/12 04:32:38;;;;;;;3.23;2.20;;;19.60;68.90;20.40;100550.00;;;;5029297;28;20264;-64
2023/05/12 04:35:04;;;;;;;2.33;2.17;;;19.60;68.90;20.40;100564.00;;;;5030854;28;20609;-64
2023/05/12 04:37:30;;;;;;;3.37;2.33;;;19.60;69.00;20.40;100563.00;;;;5029913;28;20674;-63
2023/05/12 04:39:55;;;;;;;6.97;2.77;;;19.60;68.90;20.40;100569.00;;;;5030429;28;20211;-63
2023/05/12 04:42:21;;;;;;;4.43;2.63;;;19.60;68.90;20.40;100576.00;;;;5029678;28;20179;-64
2023/05/12 04:44:47;;;;;;;6.63;2.67;;;19.50;68.80;20.30;100569.00;;;;5029011;28;20178;-67
2023/05/12 04:47:13;;;;;;;5.50;2.50;;;19.60;69.00;20.40;100574.00;;;;5031664;28;20377;-65
2023/05/12 04:49:38;;;;;;;4.67;2.80;;;19.50;68.90;20.40;100575.00;;;;5018376;28;20206;-64
2023/05/12 04:52:04;;;;;;;5.07;2.80;;;19.50;68.90;20.40;100586.00;;;;5030473;28;20171;-63
2023/05/12 04:54:31;;;;;;;6.17;2.70;;;19.50;68.90;20.40;100579.00;;;;5035892;28;20176;-65
2023/05/12 04:56:57;;;;;;;7.00;3.03;;;19.50;68.90;20.40;100595.00;;;;5036937;28;20179;-64
2023/05/12 04:59:23;;;;;;;5.47;2.70;;;19.50;68.90;20.40;100577.00;;;;5029239;28;20657;-65
2023/05/12 05:01:49;;;;;;;3.57;2.30;;;19.50;68.90;20.30;100586.00;;;;5030798;28;20182;-64
2023/05/12 05:04:14;;;;;;;5.87;2.80;;;19.50;68.80;20.30;100569.00;;;;5029789;28;20229;-64
2023/05/12 05:06:40;;;;;;;7.50;2.60;;;19.50;68.80;20.30;100592.00;;;;5030682;28;20179;-65
2023/05/12 05:09:06;;;;;;;6.33;2.50;;;19.50;69.00;20.40;100598.00;;;;5017940;28;20402;-69
2023/05/12 05:11:31;;;;;;;7.40;2.70;;;19.50;69.00;20.40;100594.00;;;;5040507;28;20190;-65
2023/05/12 05:13:57;;;;;;;4.17;2.17;;;19.50;68.90;20.40;100601.00;;;;5013370;28;20259;-63
2023/05/12 05:16:23;;;;;;;3.97;2.43;;;19.50;68.90;20.30;100606.00;;;;5028986;28;20183;-65
2023/05/12 05:18:49;;;;;;;3.23;2.50;;;19.50;68.80;20.30;100606.00;;;;5028103;28;20270;-66
2023/05/12 05:21:14;;;;;;;3.73;2.43;;;19.50;68.90;20.30;100593.00;;;;5028422;28;20207;-65
2023/05/12 05:23:40;;;;;;;3.00;2.47;;;19.50;68.90;20.30;100607.00;;;;5028479;28;20183;-64
2023/05/12 05:26:09;;;;;;;5.10;2.30;;;19.50;68.90;20.30;100613.00;;;;5028311;28;20264;-63
2023/05/12 05:28:36;;;;;;;2.77;2.27;;;19.40;68.70;20.30;100617.00;;;;5029329;28;20203;-64
2023/05/12 05:31:02;;;;;;;3.13;2.10;;;19.40;68.70;20.20;100616.00;;;;5028115;28;20631;-65
2023/05/12 05:33:27;;;;;;;3.93;2.30;;;19.50;68.90;20.30;100619.00;;;;5009669;28;20176;-64
2023/05/12 05:35:53;;;;;;;2.60;2.23;;;19.40;68.70;20.30;100628.00;;;;5012131;28;20614;-64
2023/05/12 05:38:19;;;;;;;3.70;2.20;;;19.40;68.70;20.20;100622.00;;;;5011527;28;20218;-65
2023/05/12 05:40:44;;;;;;;2.30;2.10;;;19.40;68.70;20.20;100607.00;;;;5011701;28;20194;-66
2023/05/12 05:43:10;;;;;;;2.37;2.17;;;19.40;68.70;20.20;100632.00;;;;5028317;28;20260;-67
2023/05/12 05:45:36;;;;;;;3.13;2.30;;;19.40;68.70;20.20;100645.00;;;;5011206;28;20646;-67
2023/05/12 05:48:02;;;;;;;2.57;2.00;;;19.40;68.70;20.20;100640.00;;;;5027815;28;20273;-66
2023/05/12 05:50:27;;;;;;;2.50;2.30;;;19.40;68.80;20.20;100648.00;;;;5008930;28;20204;-65
2023/05/12 05:52:54;;;;;;;2.40;2.20;;;19.40;68.70;20.20;100647.00;;;;5011897;28;20190;-66
2023/05/12 05:55:20;;;;;;;2.30;2.10;;;19.40;68.80;20.20;100635.00;;;;5029298;28;20182;-64
2023/05/12 05:57:46;;;;;;;3.70;2.30;;;19.30;68.60;20.20;100628.00;;;;5010115;28;20183;-65
2023/05/12 06:00:13;;;;;;;2.20;2.00;;;19.40;68.80;20.20;100655.00;;;;5002309;28;20309;-66
2023/05/12 06:02:42;;;;;;;3.57;2.50;;;19.30;68.70;20.20;100650.00;;;;5028007;28;20664;-64
2023/05/12 06:05:08;;;;;;;2.37;2.17;;;19.30;68.60;20.20;100650.00;;;;5027841;28;20175;-66
2023/05/12 06:07:34;;;;;;;2.67;2.07;;;19.30;68.60;20.20;100659.00;;;;5027386;28;20267;-66
2023/05/12 06:09:59;;;;;;;2.70;2.10;;;19.30;68.70;20.20;100673.00;;;;5010937;28;20286;-65
2023/05/12 06:12:25;;;;;;;2.33;2.13;;;19.30;68.70;20.10;100668.00;;;;5028850;28;20191;-65
2023/05/12 06:14:51;;;;;;;2.40;2.20;;;19.30;68.60;20.20;100640.00;;;;5027903;28;20629;-65
2023/05/12 06:17:17;;;;;;;2.40;2.20;;;19.30;68.60;20.00;100668.00;;;;5027480;28;20205;-65
2023/05/12 06:19:46;;;;;;;2.67;2.37;;;19.30;68.60;20.20;100660.00;;;;5027888;28;20206;-65
2023/05/12 06:22:13;;;;;;;3.20;2.20;;;19.30;68.70;20.20;100672.00;;;;5022542;28;20183;-65
2023/05/12 06:24:40;;;;;;;2.50;2.30;;;19.30;68.60;20.20;100676.00;;;;5027884;28;20217;-66
2023/05/12 06:27:06;;;;;;;3.13;2.17;;;19.30;68.60;20.20;100674.00;;;;5007211;28;20262;-65
2023/05/12 06:29:32;;;;;;;4.13;2.33;;;19.30;68.70;20.20;100681.00;;;;5025381;28;20586;-64
2023/05/12 06:31:58;;;;;;;3.63;2.20;;;19.30;68.80;20.20;100691.00;;;;5027257;28;20555;-64
2023/05/12 06:34:23;;;;;;;2.50;2.30;;;19.30;69.00;20.20;100670.00;;;;5027628;28;20190;-62
2023/05/12 06:36:49;;;;;;;3.30;2.20;;;19.30;69.10;20.20;100689.00;;;;5010791;28;20171;-63
2023/05/12 06:39:15;;;;;;;3.67;2.40;;;19.30;68.80;19.90;100690.00;;;;5011416;28;20218;-67
2023/05/12 06:41:41;;;;;;;2.63;2.30;;;19.30;68.70;20.00;100690.00;;;;5028841;28;20176;-64
2023/05/12 06:44:11;;;;;;;3.87;2.40;;;19.30;68.70;20.20;100704.00;;;;5022865;28;20291;-68
2023/05/12 06:46:38;;;;;;;2.60;2.40;;;19.30;68.70;20.20;100691.00;;;;5027012;28;20181;-65
2023/05/12 06:49:04;;;;;;;2.50;2.30;;;19.30;68.70;20.10;100700.00;;;;5027552;28;20566;-66
2023/05/12 06:51:30;;;;;;;2.77;2.20;;;19.30;68.70;20.10;100700.00;;;;5009395;28;20192;-65
2023/05/12 06:53:56;;;;;;;2.50;2.30;;;19.30;68.60;20.20;100705.00;;;;5027551;28;20225;-64
2023/05/12 06:56:22;;;;;;;3.70;2.40;;;19.30;68.60;20.20;100714.00;;;;5035716;28;20189;-67
2023/05/12 06:58:48;;;;;;;2.50;2.30;;;19.30;68.60;20.20;100708.00;;;;5035145;28;20573;-66
2023/05/12 07:01:15;;;;;;;3.83;2.57;;;19.30;68.60;20.20;100717.00;;;;5028070;28;20658;-64
2023/05/12 07:03:40;;;;;;;2.37;2.20;;;19.30;68.60;20.10;100718.00;;;;5027297;28;20642;-65
2023/05/12 07:06:06;;;;;;;2.50;2.30;;;19.30;68.60;20.10;100715.00;;;;5031984;28;20182;-65
2023/05/12 07:08:32;;;;;;;2.60;2.40;;;19.30;68.60;20.10;100715.00;;;;5026089;28;20210;-65
2023/05/12 07:11:01;;;;;;;2.30;2.10;;;19.20;68.50;20.10;100718.00;;;;5049318;28;20203;-66
2023/05/12 07:13:26;;;;;;;2.40;2.20;;;19.30;68.60;20.10;100719.00;;;;5039038;28;20179;-64
2023/05/12 07:15:52;;;;;;;2.70;2.50;;;19.20;68.50;20.10;100723.00;;;;5031124;28;20596;-67
2023/05/12 07:18:18;;;;;;;2.60;2.40;;;19.20;68.60;20.10;100731.00;;;;5032379;28;20203;-63
2023/05/12 07:20:45;;;;;;;2.40;2.20;;;19.20;68.50;20.10;100727.00;;;;5030862;28;20195;-63
2023/05/12 07:23:11;;;;;;;2.70;2.50;;;19.20;68.50;20.10;100728.00;;;;5031509;28;20175;-63
2023/05/12 07:25:38;;;;;;;2.50;2.20;;;19.20;68.50;20.10;100730.00;;;;5031073;28;20187;-65
2023/05/12 07:28:03;;;;;;;2.40;2.20;;;19.20;68.40;20.10;100744.00;;;;5030697;28;20187;-64
2023/05/12 07:30:29;;;;;;;2.40;2.20;;;19.20;68.40;20.10;100671.00;;;;5030515;28;20574;-63
2023/05/12 07:32:56;;;;;;;2.27;2.17;;;19.20;68.40;20.10;100748.00;;;;5030950;28;20198;-63
2023/05/12 07:35:22;;;;;;;2.37;2.17;;;19.20;68.40;20.10;100748.00;;;;5032062;28;20609;-63
2023/05/12 07:37:48;;;;;;;3.00;2.40;;;19.20;68.30;20.10;100733.00;;;;5031863;28;20238;-68
2023/05/12 07:40:13;;;;;;;2.77;2.30;;;19.20;68.30;20.10;100747.00;;;;5022015;28;20569;-65
2023/05/12 07:42:39;;;;;;;2.40;2.20;;;19.20;68.20;20.10;100748.00;;;;5021760;28;20175;-63
2023/05/12 07:45:06;;;;;;;2.73;2.53;;;19.20;68.20;19.80;100746.00;;;;5030111;28;20214;-62
2023/05/12 07:47:31;;;;;;;4.40;2.33;;;19.20;68.50;20.10;100741.00;;;;5031292;28;20704;-62
2023/05/12 07:49:57;;;;;;;2.50;2.30;;;19.20;68.50;20.10;100746.00;;;;5030321;28;20209;-63
2023/05/12 07:52:23;;;;;;;3.30;2.30;;;19.30;68.60;20.10;100744.00;;;;5013864;28;20730;-63
2023/05/12 07:54:49;;;;;;;4.10;2.43;;;19.20;68.50;20.10;100753.00;;;;5030172;28;20207;-64
2023/05/12 07:57:15;;;;;;;4.10;2.37;;;19.20;68.60;20.10;100751.00;;;;5036877;28;20242;-63
2023/05/12 07:59:41;;;;;;;4.90;2.40;;;19.20;69.10;20.10;100759.00;;;;5040073;28;20710;-64
2023/05/12 08:02:07;;;;;;;3.27;2.23;;;19.20;69.00;20.10;100747.00;;;;5032881;28;20174;-64
2023/05/12 08:04:33;;;;;;;2.60;2.40;;;19.20;69.00;20.10;100741.00;;;;5030186;28;20657;-64
2023/05/12 08:06:59;;;;;;;3.20;2.50;;;19.20;69.10;20.10;100754.00;;;;5030667;28;20653;-62
2023/05/12 08:09:24;;;;;;;4.60;2.40;;;19.20;69.50;20.10;100760.00;;;;5031262;28;20175;-64
2023/05/12 08:11:50;;;;;;;2.83;2.27;;;19.20;70.00;20.10;100755.00;;;;5030429;28;20175;-65
2023/05/12 08:14:16;;;;;;;3.67;2.37;;;19.20;70.00;20.10;100766.00;;;;5016227;28;20178;-65
2023/05/12 08:16:44;;;;;;;2.50;2.30;;;19.20;70.10;20.10;100772.00;;;;5035764;28;20183;-64
2023/05/12 08:19:11;;;;;;;2.50;2.30;;;19.20;70.40;20.10;100766.00;;;;5038238;28;20541;-64
2023/05/12 08:21:37;;;;;;;5.40;2.40;;;19.20;70.60;20.10;100764.00;;;;5031729;28;20202;-65
2023/05/12 08:24:03;;;;;;;4.90;2.80;;;19.20;70.70;20.10;100750.00;;;;5024374;28;20214;-65
2023/05/12 08:26:28;;;;;;;3.80;2.43;;;19.20;70.80;20.10;100775.00;;;;5027234;28;20282;-64
2023/05/12 08:28:54;;;;;;;3.23;2.43;;;19.20;70.90;20.10;100769.00;;;;5029498;28;20797;-64
2023/05/12 08:31:20;;;;;;;3.37;2.57;;;19.20;70.90;20.10;100777.00;;;;5030962;28;20281;-64
2023/05/12 08:33:45;;;;;;;2.70;2.37;;;19.20;70.80;20.10;100792.00;;;;5030344;28;20186;-63
2023/05/12 08:36:11;;;;;;;3.20;2.20;;;19.20;70.90;20.10;100786.00;;;;5030648;28;20274;-65
2023/05/12 08:38:37;;;;;;;2.97;2.43;;;19.20;70.90;20.10;100754.00;;;;5028663;28;20211;-65
2023/05/12 08:41:16;;;;;;;3.30;2.57;;;19.20;70.80;20.10;100778.00;;;;5012914;28;20787;-65
2023/05/12 08:43:52;;;;;;;2.90;2.30;;;19.20;70.80;20.10;100783.00;;;;5029175;28;20178;-64
2023/05/12 08:46:18;;;;;;;2.63;2.30;;;19.20;70.70;20.10;100774.00;;;;5014078;28;20266;-66
2023/05/12 08:48:47;;;;;;;2.47;2.27;;;19.20;70.60;20.10;100778.00;;;;5029006;28;20186;-66
2023/05/12 08:51:13;;;;;;;2.90;2.20;;;19.20;70.50;20.10;100789.00;;;;5029102;28;20261;-66
2023/05/12 08:53:40;;;;;;;2.40;2.20;;;19.20;70.50;20.10;100760.00;;;;5028912;28;20263;-64
2023/05/12 08:56:07;;;;;;;6.23;2.67;;;19.20;70.50;20.10;100791.00;;;;5030751;28;20179;-69
2023/05/12 08:58:34;;;;;;;8.97;2.73;;;19.20;70.50;20.10;100779.00;;;;5045385;28;20262;-70
2023/05/12 09:01:00;;;;;;;5.13;2.27;;;19.20;70.70;20.10;100747.00;;;;5019975;28;20226;-65
2023/05/12 09:03:29;;;;;;;7.17;2.43;;;19.20;70.60;20.10;100760.00;;;;5010794;28;20185;-65
2023/05/12 09:05:56;;;;;;;5.97;2.70;;;19.20;70.70;20.10;100738.00;;;;5012407;28;20175;-66
2023/05/12 09:08:24;;;;;;;5.03;2.37;;;19.20;70.70;20.10;100775.00;;;;5010710;28;20184;-66
2023/05/12 09:10:50;;;;;;;7.77;2.40;;;19.20;70.70;20.10;100751.00;;;;5032958;28;20218;-67
2023/05/12 09:13:46;;;;;;;5.90;2.50;;;19.30;70.70;20.10;100803.00;;;;5032229;28;20175;-66
2023/05/12 09:16:12;;;;;;;4.37;2.67;;;19.30;70.70;20.10;100797.00;;;;5025571;28;20205;-59
2023/05/12 09:18:53;;;;;;;4.57;2.30;;;19.30;70.80;20.10;100770.00;;;;5030770;28;20604;-59
2023/05/12 09:21:18;;;;;;;5.63;2.33;;;19.30;70.70;20.10;100802.00;;;;5028599;28;20198;-58
2023/05/12 09:24:05;;;;;;;8.63;2.50;;;19.30;70.70;20.10;100808.00;;;;5011576;28;20262;-59
2023/05/12 09:26:51;;;;;;;8.03;2.60;;;19.30;70.90;20.10;100801.00;;;;5028148;28;20180;-60
2023/05/12 09:29:17;;;;;;;3.07;2.30;;;19.30;70.90;20.10;100795.00;;;;5028319;28;20198;-60
2023/05/12 09:31:50;;;;;;;5.37;2.33;;;19.30;71.10;20.20;100799.00;;;;5028800;28;20186;-59
2023/05/12 09:34:16;;;;;;;4.53;2.40;;;19.30;71.20;20.20;100807.00;;;;5037668;28;20190;-58
2023/05/12 09:36:41;;;;;;;3.37;2.37;;;19.30;71.30;20.20;100802.00;;;;5038113;28;20262;-59
2023/05/12 09:39:08;;;;;;;6.30;2.57;;;19.30;71.30;20.20;100811.00;;;;5029549;28;20289;-59
2023/05/12 09:41:38;;;;;;;6.37;2.50;;;19.40;71.40;20.20;100799.00;;;;5029792;28;20174;-60
2023/05/12 09:44:05;;;;;;;4.23;2.50;;;19.40;71.40;20.30;100799.00;;;;5028329;28;20194;-58
2023/05/12 09:46:31;;;;;;;4.17;2.47;;;19.40;71.40;20.30;100812.00;;;;5027463;28;20175;-59
2023/05/12 09:48:57;;;;;;;4.47;2.40;;;19.40;71.50;20.30;100810.00;;;;5028215;28;20244;-60
2023/05/12 09:51:23;;;;;;;3.43;2.33;;;19.50;71.50;20.30;100804.00;;;;5029007;28;20207;-59
2023/05/12 09:53:49;;;;;;;3.47;2.20;;;19.50;71.50;20.30;100798.00;;;;5028376;28;20186;-60
2023/05/12 09:56:15;;;;;;;3.23;2.30;;;19.50;71.40;20.30;100807.00;;;;5028052;28;20652;-59
2023/05/12 09:58:46;;;;;;;2.47;2.23;;;19.50;71.30;20.40;100806.00;;;;5027928;28;20700;-60
2023/05/12 10:01:17;;;;;;;4.60;2.27;;;19.50;71.30;20.40;100804.00;;;;5029389;28;20213;-60
2023/05/12 10:03:54;;;;;;;5.13;2.30;;;19.50;71.50;20.40;100799.00;;;;5026572;28;20293;-58
2023/05/12 10:06:29;;;;;;;3.50;2.20;;;19.50;71.20;20.40;100800.00;;;;5027724;28;20191;-60
2023/05/12 10:09:04;;;;;;;4.70;2.40;;;19.60;71.20;20.40;100806.00;;;;5029199;28;20175;-59
2023/05/12 10:11:30;;;;;;;2.80;2.20;;;19.60;71.20;20.40;100796.00;;;;5029443;28;20241;-60
2023/05/12 10:13:56;;;;;;;3.07;2.40;;;19.50;71.20;20.40;100797.00;;;;5028482;28;20207;-58
2023/05/12 10:16:22;;;;;;;4.03;2.33;;;19.60;71.10;20.40;100793.00;;;;5028220;28;20206;-58
2023/05/12 10:18:48;;;;;;;4.47;2.40;;;19.60;71.20;20.50;100797.00;;;;5011828;28;20211;-58
2023/05/12 10:21:13;;;;;;;2.60;1.93;;;19.70;71.50;20.50;100797.00;;;;5028305;28;20195;-57
2023/05/12 10:23:43;;;;;;;4.97;2.27;;;19.60;71.10;20.50;100755.00;;;;5027663;28;20228;-58
2023/05/12 10:26:10;;;;;;;2.60;2.20;;;19.60;71.10;20.50;100802.00;;;;5032068;28;20231;-60
2023/05/12 10:28:36;;;;;;;4.73;2.30;;;19.60;71.10;20.60;100807.00;;;;5033457;28;20661;-58
2023/05/12 10:31:02;;;;;;;6.83;2.30;;;19.60;71.00;20.50;100796.00;;;;5031115;28;20300;-58
2023/05/12 10:33:28;;;;;;;3.33;2.40;;;19.60;71.00;20.60;100790.00;;;;5027613;28;20334;-58
2023/05/12 10:35:54;;;;;;;5.53;2.60;;;19.70;71.30;20.60;100806.00;;;;5028268;28;20178;-57
2023/05/12 10:38:19;;;;;;;2.63;2.20;;;19.70;71.30;20.60;100804.00;;;;5028951;28;20207;-57
2023/05/12 10:40:58;;;;;;;4.83;2.37;;;19.70;71.10;20.60;100797.00;;;;5032624;28;20205;-58
2023/05/12 10:43:29;;;;;;;3.70;2.40;;;19.70;71.20;20.60;100795.00;;;;5032108;28;20185;-58
2023/05/12 10:46:16;;;;;;;2.93;2.30;;;19.80;71.30;20.70;100794.00;;;;5033047;28;20182;-57